Airfield :
LOGIN :

Register | Disclaimer

   EN    FR    IT 

 










Legend :    VFR   Marginal VFR   IFR   Intensive IFR   Very Intensive IFR
Visi :
Ceiling :
>= 8 km
>= 3000ft
5 to 8 km
1000 to 3000 ft
1500m to 5 km
500 to 1000 ft
800 to 1500m
200 to 500 ft
< 800m
< 200 ft
Symbols :   Thunderstorms  Fog  Heavy snow  Heavy precipitations  Wind > 20 kt
SIGMETs :     Misc.  Thunderstorms  Icing  Turbulence  Mountain Waves  Volcanic Ashes







- Airport Elevation : 2220 ft


LOXZ - Zeltweg AB

CURRENT METAR :
  • 250820Z 04002KT 30KM FEW035SC BKN100AC 16/12 Q1019 NOSIG

EXPIRED METARs :
  • 250750Z 04002KT 30KM FEW035SC BKN100AC 16/11 Q1019 NOSIG
  • 250720Z 24002KT 30KM FEW010ST BKN100AC 16/11 Q1019 NOSIG
  • 250650Z 04001KT 20KM FEW008ST BKN090AC 15/13 Q1019 NOSIG
  • 250620Z VRB01KT 10KM FEW006ST BKN090AC 14/11 Q1019 NOSIG
  • 250550Z 14001KT 10KM FEW004ST 13/11 Q1019 NOSIG

Expired Forecast.
No reported NOTAMs for that airfield.
1 SIGMET reported for the Wien FIR (LOVV) :
 
Embedded thunderstorms
LOVV SIGMET 2 VALID 250610/250815 LOWW
LOVV WIEN FIR EMBD TS OBS NE OF LINE N4840 E01445 - N4725 E01630 TOP FL360 STNR NC=



MET'MAP, your aeronautical weather chart ! - Copyright ORBIFLY December 2007 - Disclaimer

ORBIFLY MET'MAP TEAM :

Programming & Development : Alexandra Zaïnal
Concept & Development : Baudouin d'Aumeries
Co-Development & Prog : Marc-Olivier Méhu
Technical & hardware support : Manuel Goepfert

Contact : metmap@orbifly.com




SOURCES & CREDITS :

   NOAA